createdAt,value
2019-05-11T00:00:28.311Z,18.74
2019-05-11T00:01:30.707Z,18.74
2019-05-11T00:02:32.909Z,18.73
2019-05-11T00:03:35.302Z,18.74
2019-05-11T00:04:37.504Z,18.74
2019-05-11T00:05:39.920Z,18.74
2019-05-11T00:06:42.147Z,18.73
2019-05-11T00:07:44.546Z,18.73
2019-05-11T00:08:46.758Z,18.73
2019-05-11T00:09:57.361Z,18.72
2019-05-11T00:10:53.042Z,18.72
2019-05-11T00:11:55.449Z,18.72
2019-05-11T00:12:57.673Z,18.72
2019-05-11T00:14:00.073Z,18.72
2019-05-11T00:15:02.289Z,18.71
2019-05-11T00:16:04.713Z,18.72
2019-05-11T00:17:06.912Z,18.70
2019-05-11T00:18:09.328Z,18.70
2019-05-11T00:19:11.645Z,18.71
2019-05-11T00:20:14.048Z,18.70
2019-05-11T00:21:16.234Z,18.71
2019-05-11T00:22:18.639Z,18.71
2019-05-11T00:23:20.884Z,18.70
2019-05-11T00:24:23.285Z,18.70
2019-05-11T00:25:25.497Z,18.71
2019-05-11T00:26:27.921Z,18.70
2019-05-11T00:27:30.117Z,18.70
2019-05-11T00:28:32.519Z,18.69
2019-05-11T00:29:34.729Z,18.69
2019-05-11T00:30:37.121Z,18.69
2019-05-11T00:31:39.361Z,18.69
2019-05-11T00:32:41.747Z,18.68
2019-05-11T00:33:44.053Z,18.68
2019-05-11T00:34:46.446Z,18.70
2019-05-11T00:35:48.681Z,18.69
2019-05-11T00:36:51.066Z,18.69
2019-05-11T00:37:53.275Z,18.68
2019-05-11T00:38:55.667Z,18.68
2019-05-11T00:40:12.074Z,18.68
2019-05-11T00:41:01.952Z,18.67
2019-05-11T00:42:04.215Z,18.67
2019-05-11T00:43:06.563Z,18.67
2019-05-11T00:44:08.782Z,18.66
2019-05-11T00:45:11.178Z,18.67
2019-05-11T00:46:13.403Z,18.65
2019-05-11T00:47:15.795Z,18.67
2019-05-11T00:48:17.996Z,18.68
2019-05-11T00:49:20.436Z,18.66
2019-05-11T00:50:37.595Z,18.66
2019-05-11T00:51:26.699Z,18.66
2019-05-11T00:52:28.906Z,18.64
2019-05-11T00:53:31.314Z,18.65
2019-05-11T00:54:33.545Z,18.65
2019-05-11T00:55:35.918Z,18.65
2019-05-11T00:56:38.130Z,18.65
2019-05-11T00:57:40.519Z,18.65
2019-05-11T00:58:42.738Z,18.65
2019-05-11T00:59:45.155Z,18.64
2019-05-11T01:00:47.392Z,18.64
2019-05-11T01:01:49.767Z,18.63
2019-05-11T01:02:51.973Z,18.63
2019-05-11T01:03:54.358Z,18.63
2019-05-11T01:04:56.598Z,18.62
2019-05-11T01:05:59.059Z,18.63
2019-05-11T01:07:01.279Z,18.63
2019-05-11T01:08:03.670Z,18.63
2019-05-11T01:09:06.529Z,18.63
2019-05-11T01:10:22.894Z,18.63
2019-05-11T01:11:12.797Z,18.62
2019-05-11T01:12:15.189Z,18.63
2019-05-11T01:13:17.403Z,18.62
2019-05-11T01:14:19.793Z,18.62
2019-05-11T01:15:22.055Z,18.62
2019-05-11T01:16:24.441Z,18.62
2019-05-11T01:17:26.661Z,18.62
2019-05-11T01:18:29.077Z,18.62
2019-05-11T01:19:31.281Z,18.61
2019-05-11T01:20:33.641Z,18.61
2019-05-11T01:21:35.881Z,18.61
2019-05-11T01:22:38.320Z,18.61
2019-05-11T01:23:40.504Z,18.60
2019-05-11T01:24:42.892Z,18.60
2019-05-11T01:25:45.157Z,18.60
2019-05-11T01:26:47.535Z,18.60
2019-05-11T01:27:49.751Z,18.59
2019-05-11T01:28:52.178Z,18.59
2019-05-11T01:29:54.381Z,18.60
2019-05-11T01:30:56.782Z,18.59
2019-05-11T01:31:58.985Z,18.60
2019-05-11T01:33:01.371Z,18.58
2019-05-11T01:34:03.582Z,18.58
2019-05-11T01:35:05.979Z,18.59
2019-05-11T01:36:08.228Z,18.58
2019-05-11T01:37:10.627Z,18.58
2019-05-11T01:38:12.815Z,18.59
2019-05-11T01:39:15.223Z,18.58
2019-05-11T01:40:17.431Z,18.57
2019-05-11T01:41:19.850Z,18.57
2019-05-11T01:42:22.055Z,18.57
2019-05-11T01:43:24.442Z,18.58
2019-05-11T01:44:26.650Z,18.58
2019-05-11T01:45:29.055Z,18.57
2019-05-11T01:46:31.275Z,18.57
2019-05-11T01:47:33.672Z,18.57
2019-05-11T01:48:35.879Z,18.57
2019-05-11T01:49:38.265Z,18.57
2019-05-11T01:50:40.491Z,18.56
2019-05-11T01:51:42.909Z,18.57
2019-05-11T01:52:45.105Z,18.56
2019-05-11T01:53:48.166Z,18.56
2019-05-11T01:54:50.419Z,18.55
2019-05-11T01:55:52.814Z,18.54
2019-05-11T01:56:55.053Z,18.56
2019-05-11T01:57:57.439Z,18.54
2019-05-11T01:58:59.657Z,18.56
2019-05-11T02:00:02.051Z,18.55
2019-05-11T02:01:04.248Z,18.55
2019-05-11T02:02:06.660Z,18.54
2019-05-11T02:03:08.875Z,18.54
2019-05-11T02:04:11.264Z,18.53
2019-05-11T02:05:32.311Z,18.53
2019-05-11T02:06:34.698Z,18.54
2019-05-11T02:07:36.915Z,18.53
2019-05-11T02:08:39.319Z,18.52
2019-05-11T02:09:41.508Z,18.53
2019-05-11T02:10:43.904Z,18.52
2019-05-11T02:11:46.123Z,18.52
2019-05-11T02:12:48.518Z,18.53
2019-05-11T02:13:50.719Z,18.52
2019-05-11T02:14:53.111Z,18.52
2019-05-11T02:15:55.321Z,18.51
2019-05-11T02:16:57.777Z,18.52
2019-05-11T02:18:00.067Z,18.51
2019-05-11T02:19:02.444Z,18.52
2019-05-11T02:20:04.667Z,18.51
2019-05-11T02:21:07.066Z,18.52
2019-05-11T02:22:09.292Z,18.50
2019-05-11T02:23:11.682Z,18.50
2019-05-11T02:24:13.962Z,18.50
2019-05-11T02:25:16.344Z,18.50
2019-05-11T02:26:18.555Z,18.50
2019-05-11T02:27:20.965Z,18.50
2019-05-11T02:28:23.164Z,18.50
2019-05-11T02:29:25.570Z,18.50
2019-05-11T02:30:27.769Z,18.49
2019-05-11T02:31:30.158Z,18.50
2019-05-11T02:32:32.378Z,18.48
2019-05-11T02:33:34.778Z,18.50
2019-05-11T02:34:36.987Z,18.49
2019-05-11T02:35:39.359Z,18.48
2019-05-11T02:36:41.645Z,18.50
2019-05-11T02:37:44.074Z,18.49
2019-05-11T02:38:46.262Z,18.48
2019-05-11T02:39:48.578Z,18.48
2019-05-11T02:40:50.801Z,18.48
2019-05-11T02:41:53.188Z,18.47
2019-05-11T02:42:55.390Z,18.46
2019-05-11T02:43:57.969Z,18.47
2019-05-11T02:45:00.184Z,18.47
2019-05-11T02:46:02.611Z,18.47
2019-05-11T02:47:04.824Z,18.47
2019-05-11T02:48:07.237Z,18.46
2019-05-11T02:49:09.434Z,18.45
2019-05-11T02:50:11.831Z,18.45
2019-05-11T02:51:14.043Z,18.45
2019-05-11T02:52:16.467Z,18.45
2019-05-11T02:53:18.762Z,18.44
2019-05-11T02:54:21.153Z,18.45
2019-05-11T02:55:23.368Z,18.44
2019-05-11T02:56:25.759Z,18.43
2019-05-11T02:57:27.983Z,18.45
2019-05-11T02:58:30.370Z,18.44
2019-05-11T02:59:32.577Z,18.44
2019-05-11T03:00:34.964Z,18.43
2019-05-11T03:01:37.169Z,18.42
2019-05-11T03:02:39.578Z,18.44
2019-05-11T03:03:41.787Z,18.43
2019-05-11T03:04:44.181Z,18.42
2019-05-11T03:05:46.427Z,18.42
2019-05-11T03:06:48.818Z,18.42
2019-05-11T03:07:51.063Z,18.41
2019-05-11T03:08:53.450Z,18.42
2019-05-11T03:09:55.653Z,18.42
2019-05-11T03:10:58.049Z,18.41
2019-05-11T03:12:00.247Z,18.42
2019-05-11T03:13:02.669Z,18.42
2019-05-11T03:14:04.867Z,18.41
2019-05-11T03:15:07.275Z,18.41
2019-05-11T03:16:09.459Z,18.40
2019-05-11T03:17:18.705Z,18.40
2019-05-11T03:18:20.930Z,18.41
2019-05-11T03:19:23.305Z,18.40
2019-05-11T03:20:25.499Z,18.41
2019-05-11T03:21:27.913Z,18.40
2019-05-11T03:22:30.108Z,18.41
2019-05-11T03:23:32.518Z,18.40
2019-05-11T03:24:34.662Z,18.40
2019-05-11T03:25:37.048Z,18.40
2019-05-11T03:26:39.243Z,18.38
2019-05-11T03:27:41.648Z,18.38
2019-05-11T03:28:43.876Z,18.38
2019-05-11T03:29:46.272Z,18.38
2019-05-11T03:30:48.485Z,18.39
2019-05-11T03:31:50.865Z,18.38
2019-05-11T03:32:53.077Z,18.37
2019-05-11T03:33:55.506Z,18.38
2019-05-11T03:34:57.710Z,18.37
2019-05-11T03:36:00.101Z,18.38
2019-05-11T03:37:02.304Z,18.38
2019-05-11T03:38:04.687Z,18.38
2019-05-11T03:39:06.913Z,18.37
2019-05-11T03:40:09.305Z,18.36
2019-05-11T03:41:11.505Z,18.36
2019-05-11T03:42:15.407Z,18.36
2019-05-11T03:43:17.819Z,18.36
2019-05-11T03:44:20.222Z,18.37
2019-05-11T03:45:22.436Z,18.36
2019-05-11T03:46:24.847Z,18.36
2019-05-11T03:47:27.063Z,18.35
2019-05-11T03:48:29.464Z,18.36
2019-05-11T03:49:31.670Z,18.35
2019-05-11T03:50:34.060Z,18.36
2019-05-11T03:51:36.260Z,18.36
2019-05-11T03:52:38.648Z,18.35
2019-05-11T03:53:40.865Z,18.35
2019-05-11T03:54:43.258Z,18.35
2019-05-11T03:55:45.455Z,18.34
2019-05-11T03:56:47.842Z,18.35
2019-05-11T03:57:50.053Z,18.35
2019-05-11T03:58:52.505Z,18.34
2019-05-11T03:59:54.800Z,18.34
2019-05-11T04:00:57.195Z,18.35
2019-05-11T04:01:59.409Z,18.33
2019-05-11T04:03:01.887Z,18.33
2019-05-11T04:04:04.094Z,18.33
2019-05-11T04:05:06.482Z,18.33
2019-05-11T04:06:08.708Z,18.33
2019-05-11T04:07:11.082Z,18.33
2019-05-11T04:08:13.304Z,18.32
2019-05-11T04:09:15.805Z,18.32
2019-05-11T04:10:17.991Z,18.32
2019-05-11T04:11:20.380Z,18.32
2019-05-11T04:12:34.037Z,18.32
2019-05-11T04:13:27.878Z,18.31
2019-05-11T04:14:30.076Z,18.32
2019-05-11T04:15:32.463Z,18.32
2019-05-11T04:16:34.669Z,18.32
2019-05-11T04:17:37.089Z,18.32
2019-05-11T04:18:39.315Z,18.32
2019-05-11T04:19:41.695Z,18.32
2019-05-11T04:20:43.907Z,18.32
2019-05-11T04:21:46.320Z,18.32
2019-05-11T04:22:48.516Z,18.31
2019-05-11T04:23:50.941Z,18.31
2019-05-11T04:24:53.141Z,18.31
2019-05-11T04:25:55.526Z,18.31
2019-05-11T04:26:57.757Z,18.31
2019-05-11T04:28:00.155Z,18.31
2019-05-11T04:29:02.384Z,18.31
2019-05-11T04:30:04.784Z,18.29
2019-05-11T04:31:07.005Z,18.30
2019-05-11T04:32:09.411Z,18.31
2019-05-11T04:33:11.638Z,18.29
2019-05-11T04:34:14.032Z,18.30
2019-05-11T04:35:16.240Z,18.30
2019-05-11T04:36:18.628Z,18.29
2019-05-11T04:37:20.853Z,18.29
2019-05-11T04:38:23.278Z,18.29
2019-05-11T04:39:25.486Z,18.29
2019-05-11T04:40:27.892Z,18.29
2019-05-11T04:41:30.105Z,18.29
2019-05-11T04:42:32.494Z,18.29
2019-05-11T04:43:34.733Z,18.28
2019-05-11T04:44:38.941Z,18.28
2019-05-11T04:45:41.155Z,18.29
2019-05-11T04:46:43.562Z,18.28
2019-05-11T04:47:45.786Z,18.29
2019-05-11T04:48:48.209Z,18.28
2019-05-11T04:49:51.534Z,18.28
2019-05-11T04:50:53.935Z,18.27
2019-05-11T04:51:56.154Z,18.27
2019-05-11T04:52:58.553Z,18.27
2019-05-11T04:54:00.760Z,18.27
2019-05-11T04:55:03.156Z,18.27
2019-05-11T04:56:05.401Z,18.28
2019-05-11T04:57:07.800Z,18.27
2019-05-11T04:58:10.027Z,18.27
2019-05-11T04:59:12.424Z,18.29
2019-05-11T05:00:14.656Z,18.29
2019-05-11T05:01:17.046Z,18.29
2019-05-11T05:02:19.270Z,18.29
2019-05-11T05:03:21.694Z,18.29
2019-05-11T05:04:23.895Z,18.27
2019-05-11T05:05:26.343Z,18.28
2019-05-11T05:06:28.612Z,18.28
2019-05-11T05:07:30.947Z,18.28
2019-05-11T05:08:33.182Z,18.26
2019-05-11T05:09:42.008Z,18.27
2019-05-11T05:10:39.492Z,18.28
2019-05-11T05:11:41.913Z,18.27
2019-05-11T05:12:50.379Z,18.27
2019-05-11T05:13:48.171Z,18.27
2019-05-11T05:14:50.442Z,18.28
2019-05-11T05:15:52.840Z,18.29
2019-05-11T05:16:55.047Z,18.28
2019-05-11T05:17:57.436Z,18.28
2019-05-11T05:18:59.668Z,18.28
2019-05-11T05:20:02.076Z,18.28
2019-05-11T05:21:04.312Z,18.28
2019-05-11T05:22:06.774Z,18.28
2019-05-11T05:23:08.992Z,18.27
2019-05-11T05:24:11.396Z,18.28
2019-05-11T05:25:13.601Z,18.28
2019-05-11T05:26:16.002Z,18.29
2019-05-11T05:27:18.241Z,18.28
2019-05-11T05:28:20.656Z,18.29
2019-05-11T05:29:23.890Z,18.28
2019-05-11T05:30:26.288Z,18.29
2019-05-11T05:31:28.518Z,18.29
2019-05-11T05:32:30.908Z,18.29
2019-05-11T05:33:33.113Z,18.28
2019-05-11T05:34:35.565Z,18.29
2019-05-11T05:35:37.726Z,18.29
2019-05-11T05:36:40.119Z,18.30
2019-05-11T05:37:42.328Z,18.29
2019-05-11T05:38:44.762Z,18.29
2019-05-11T05:39:46.983Z,18.30
2019-05-11T05:40:49.372Z,18.30
2019-05-11T05:41:57.153Z,18.29
2019-05-11T05:42:55.644Z,18.30
2019-05-11T05:43:57.872Z,18.30
2019-05-11T05:45:00.607Z,18.30
2019-05-11T05:46:02.820Z,18.30
2019-05-11T05:47:05.233Z,18.31
2019-05-11T05:48:07.472Z,18.31
2019-05-11T05:49:09.866Z,18.31
2019-05-11T05:50:12.066Z,18.31
2019-05-11T05:51:14.468Z,18.30
2019-05-11T05:52:16.653Z,18.32
2019-05-11T05:53:19.106Z,18.31
2019-05-11T05:54:21.291Z,18.30
2019-05-11T05:55:23.682Z,18.31
2019-05-11T05:56:25.900Z,18.30
2019-05-11T05:57:28.297Z,18.31
2019-05-11T05:58:30.506Z,18.30
2019-05-11T05:59:32.919Z,18.31
2019-05-11T06:00:35.127Z,18.31
2019-05-11T06:01:37.497Z,18.32
2019-05-11T06:02:40.638Z,18.32
2019-05-11T06:03:44.828Z,18.31
2019-05-11T06:04:47.057Z,18.33
2019-05-11T06:05:49.434Z,18.32
2019-05-11T06:06:51.639Z,18.32
2019-05-11T06:07:54.041Z,18.32
2019-05-11T06:08:56.245Z,18.31
2019-05-11T06:09:58.665Z,18.32
2019-05-11T06:11:00.876Z,18.33
2019-05-11T06:12:03.269Z,18.33
2019-05-11T06:13:05.471Z,18.33
2019-05-11T06:14:07.863Z,18.33
2019-05-11T06:15:10.088Z,18.33
2019-05-11T06:16:12.475Z,18.34
2019-05-11T06:17:14.753Z,18.33
2019-05-11T06:18:17.138Z,18.33
2019-05-11T06:19:19.314Z,18.35
2019-05-11T06:20:21.742Z,18.34
2019-05-11T06:21:23.942Z,18.34
2019-05-11T06:22:26.391Z,18.34
2019-05-11T06:23:28.627Z,18.35
2019-05-11T06:24:30.999Z,18.35
2019-05-11T06:25:33.251Z,18.35
2019-05-11T06:26:35.663Z,18.35
2019-05-11T06:27:37.883Z,18.36
2019-05-11T06:28:40.298Z,18.36
2019-05-11T06:29:42.518Z,18.37
2019-05-11T06:30:44.964Z,18.36
2019-05-11T06:31:47.176Z,18.36
2019-05-11T06:32:49.583Z,18.36
2019-05-11T06:33:51.789Z,18.37
2019-05-11T06:34:54.228Z,18.39
2019-05-11T06:35:56.435Z,18.37
2019-05-11T06:36:58.859Z,18.38
2019-05-11T06:38:01.078Z,18.38
2019-05-11T06:39:04.287Z,18.38
2019-05-11T06:40:06.553Z,18.38
2019-05-11T06:41:08.953Z,18.40
2019-05-11T06:42:11.179Z,18.39
2019-05-11T06:43:13.575Z,18.39
2019-05-11T06:44:15.802Z,18.40
2019-05-11T06:45:18.215Z,18.40
2019-05-11T06:46:20.439Z,18.41
2019-05-11T06:47:22.843Z,18.42
2019-05-11T06:48:25.067Z,18.43
2019-05-11T06:49:27.439Z,18.44
2019-05-11T06:50:29.677Z,18.45
2019-05-11T06:51:32.070Z,18.44
2019-05-11T06:52:34.287Z,18.44
2019-05-11T06:53:36.742Z,18.44
2019-05-11T06:54:38.963Z,18.42
2019-05-11T06:55:41.433Z,18.42
2019-05-11T06:56:43.693Z,18.41
2019-05-11T06:57:46.098Z,18.41
2019-05-11T06:58:48.319Z,18.40
2019-05-11T06:59:50.709Z,18.41
2019-05-11T07:00:52.929Z,18.42
2019-05-11T07:01:55.325Z,18.44
2019-05-11T07:02:57.547Z,18.43
2019-05-11T07:03:59.953Z,18.45
2019-05-11T07:05:02.163Z,18.44
2019-05-11T07:06:04.567Z,18.44
2019-05-11T07:07:06.783Z,18.44
2019-05-11T07:08:09.179Z,18.44
2019-05-11T07:09:11.409Z,18.44
2019-05-11T07:10:13.831Z,18.45
2019-05-11T07:11:16.079Z,18.43
2019-05-11T07:12:18.624Z,18.44
2019-05-11T07:13:20.872Z,18.45
2019-05-11T07:14:23.274Z,18.45
2019-05-11T07:15:25.574Z,18.46
2019-05-11T07:16:27.991Z,18.42
2019-05-11T07:17:30.192Z,18.46
2019-05-11T07:18:32.567Z,18.52
2019-05-11T07:19:34.795Z,18.54
2019-05-11T07:20:49.389Z,18.60
2019-05-11T07:21:41.084Z,18.63
2019-05-11T07:22:43.473Z,18.63
2019-05-11T07:23:45.694Z,18.62
2019-05-11T07:24:48.091Z,18.62
2019-05-11T07:25:51.375Z,18.62
2019-05-11T07:26:53.754Z,18.59
2019-05-11T07:27:55.986Z,18.60
2019-05-11T07:28:58.365Z,18.60
2019-05-11T07:30:00.681Z,18.60
2019-05-11T07:31:03.095Z,18.59
2019-05-11T07:32:14.933Z,18.57
2019-05-11T07:33:09.363Z,18.58
2019-05-11T07:34:13.134Z,18.57
2019-05-11T07:35:15.561Z,18.57
2019-05-11T07:36:17.908Z,18.58
2019-05-11T07:37:23.939Z,18.58
2019-05-11T07:38:24.417Z,18.33
2019-05-11T07:39:27.938Z,17.94
2019-05-11T07:40:30.353Z,17.69
2019-05-11T07:41:32.752Z,17.82
2019-05-11T07:42:34.984Z,17.98
2019-05-11T07:43:38.066Z,18.10
2019-05-11T07:44:41.891Z,18.20
2019-05-11T07:45:44.405Z,18.26
2019-05-11T07:46:48.324Z,18.31
2019-05-11T07:47:50.854Z,18.34
2019-05-11T07:48:53.042Z,18.38
2019-05-11T07:49:57.725Z,18.41
2019-05-11T07:50:59.323Z,18.41
2019-05-11T07:52:01.715Z,18.44
2019-05-11T07:53:03.956Z,18.44
2019-05-11T07:54:08.415Z,18.44
2019-05-11T07:55:10.244Z,18.45
2019-05-11T07:56:12.627Z,18.46
2019-05-11T07:57:14.848Z,18.47
2019-05-11T07:58:20.162Z,18.48
2019-05-11T07:59:21.155Z,18.48
2019-05-11T08:00:23.571Z,18.49
2019-05-11T08:01:28.053Z,18.50
2019-05-11T08:02:32.323Z,18.51
2019-05-11T08:03:33.748Z,18.52
2019-05-11T08:04:37.871Z,18.53
2019-05-11T08:05:40.016Z,18.54
2019-05-11T08:06:42.501Z,18.55
2019-05-11T08:07:44.704Z,18.56
2019-05-11T08:08:49.090Z,18.56
2019-05-11T08:09:50.954Z,18.56
2019-05-11T08:10:53.360Z,18.57
2019-05-11T08:11:55.618Z,18.58
2019-05-11T08:12:58.707Z,18.57
2019-05-11T08:14:01.144Z,18.56
2019-05-11T08:15:09.958Z,18.55
2019-05-11T08:16:08.276Z,18.56
2019-05-11T08:17:10.844Z,18.57
2019-05-11T08:18:13.040Z,18.57
2019-05-11T08:19:18.210Z,18.57
2019-05-11T08:20:19.361Z,18.57
2019-05-11T08:21:21.759Z,18.56
2019-05-11T08:22:23.988Z,18.57
2019-05-11T08:23:28.347Z,18.57
2019-05-11T08:24:30.239Z,18.58
2019-05-11T08:25:32.645Z,18.58
2019-05-11T08:26:34.878Z,18.57
2019-05-11T08:27:37.863Z,18.58
2019-05-11T08:28:40.189Z,18.57
2019-05-11T08:29:42.589Z,18.59
2019-05-11T08:30:44.799Z,18.59
2019-05-11T08:31:48.761Z,18.59
2019-05-11T08:32:51.230Z,18.59
2019-05-11T08:33:53.616Z,18.60
2019-05-11T08:34:57.909Z,18.61
2019-05-11T08:35:59.922Z,18.61
2019-05-11T08:37:02.157Z,18.61
2019-05-11T08:38:04.554Z,18.60
2019-05-11T08:39:07.866Z,18.59
2019-05-11T08:40:10.383Z,18.58
2019-05-11T08:41:12.637Z,18.57
2019-05-11T08:42:15.018Z,18.56
2019-05-11T08:43:17.965Z,18.57
2019-05-11T08:44:21.699Z,18.59
2019-05-11T08:45:24.868Z,18.58
2019-05-11T08:46:28.044Z,18.59
2019-05-11T08:47:30.393Z,18.60
2019-05-11T08:48:32.798Z,18.60
2019-05-11T08:49:34.994Z,18.60
2019-05-11T08:50:38.267Z,18.60
2019-05-11T08:51:40.642Z,18.60
2019-05-11T08:52:43.059Z,18.61
2019-05-11T08:53:45.314Z,18.60
2019-05-11T08:54:48.681Z,18.61
2019-05-11T08:55:51.023Z,18.61
2019-05-11T08:56:53.420Z,18.61
2019-05-11T08:57:55.628Z,18.61
2019-05-11T08:58:58.792Z,18.60
2019-05-11T09:00:01.232Z,18.61
2019-05-11T09:01:03.645Z,18.59
2019-05-11T09:02:08.051Z,18.57
2019-05-11T09:03:09.965Z,18.55
2019-05-11T09:04:12.174Z,18.58
2019-05-11T09:05:14.580Z,18.57
2019-05-11T09:06:17.959Z,18.57
2019-05-11T09:07:20.615Z,18.58
2019-05-11T09:08:22.845Z,18.58
2019-05-11T09:09:25.246Z,18.57
2019-05-11T09:10:28.168Z,18.59
2019-05-11T09:11:30.742Z,18.60
2019-05-11T09:12:32.975Z,18.60
2019-05-11T09:13:35.380Z,18.60
2019-05-11T09:14:38.753Z,18.60
2019-05-11T09:15:41.316Z,18.60
2019-05-11T09:16:43.543Z,18.61
2019-05-11T09:17:45.961Z,18.61
2019-05-11T09:18:48.264Z,18.61
2019-05-11T09:19:51.776Z,18.61
2019-05-11T09:20:53.910Z,18.61
2019-05-11T09:21:58.595Z,18.62
2019-05-11T09:23:00.988Z,18.61
2019-05-11T09:24:03.338Z,18.61
2019-05-11T09:25:05.855Z,18.61
2019-05-11T09:26:08.921Z,18.61
2019-05-11T09:27:11.289Z,18.61
2019-05-11T09:28:13.670Z,18.62
2019-05-11T09:29:17.759Z,18.61
2019-05-11T09:30:19.946Z,18.61
2019-05-11T09:31:22.151Z,18.62
2019-05-11T09:32:24.564Z,18.62
2019-05-11T09:33:28.344Z,18.61
2019-05-11T09:34:30.943Z,18.61
2019-05-11T09:35:46.787Z,18.61
2019-05-11T09:36:38.935Z,18.62
2019-05-11T09:37:41.067Z,18.62
2019-05-11T09:38:43.485Z,18.62
2019-05-11T09:39:47.742Z,18.61
2019-05-11T09:40:50.735Z,18.63
2019-05-11T09:41:52.969Z,18.62
2019-05-11T09:42:55.357Z,18.62
2019-05-11T09:43:58.655Z,18.62
2019-05-11T09:45:01.293Z,18.62
2019-05-11T09:46:03.547Z,18.62
2019-05-11T09:47:08.125Z,18.63
2019-05-11T09:48:09.831Z,18.63
2019-05-11T09:49:12.240Z,18.62
2019-05-11T09:50:14.452Z,18.63
2019-05-11T09:51:18.396Z,18.62
2019-05-11T09:52:20.907Z,18.63
2019-05-11T09:53:23.313Z,18.63
2019-05-11T09:54:25.515Z,18.64
2019-05-11T09:55:28.398Z,18.63
2019-05-11T09:56:30.740Z,18.64
2019-05-11T09:57:33.180Z,18.64
2019-05-11T09:58:35.407Z,18.63
2019-05-11T09:59:38.546Z,18.64
2019-05-11T10:00:40.999Z,18.64
2019-05-11T10:01:43.419Z,18.65
2019-05-11T10:02:45.636Z,18.64
2019-05-11T10:03:48.367Z,18.63
2019-05-11T10:04:50.687Z,18.63
2019-05-11T10:05:53.199Z,18.64
2019-05-11T10:06:55.443Z,18.64
2019-05-11T10:07:58.866Z,18.65
2019-05-11T10:09:01.428Z,18.64
2019-05-11T10:10:03.873Z,18.63
2019-05-11T10:11:08.166Z,18.63
2019-05-11T10:12:10.220Z,18.63
2019-05-11T10:13:12.462Z,18.64
2019-05-11T10:14:14.856Z,18.64
2019-05-11T10:15:18.809Z,18.63
2019-05-11T10:16:21.357Z,18.64
2019-05-11T10:18:28.187Z,18.63
2019-05-11T10:19:30.803Z,18.63
2019-05-11T10:20:33.007Z,18.63
2019-05-11T10:21:35.400Z,18.64
2019-05-11T10:22:38.494Z,18.64
2019-05-11T10:23:42.560Z,18.64
2019-05-11T10:24:44.986Z,18.64
2019-05-11T10:25:48.105Z,18.63
2019-05-11T10:26:50.367Z,18.64
2019-05-11T10:27:52.775Z,18.62
2019-05-11T10:28:54.967Z,18.62
2019-05-11T10:29:58.911Z,18.62
2019-05-11T10:31:01.253Z,18.63
2019-05-11T10:32:03.644Z,18.63
2019-05-11T10:33:08.109Z,18.64
2019-05-11T10:34:10.003Z,18.63
2019-05-11T10:35:12.296Z,18.62
2019-05-11T10:36:14.686Z,18.61
2019-05-11T10:37:17.673Z,18.61
2019-05-11T10:38:20.327Z,18.61
2019-05-11T10:39:22.515Z,18.62
2019-05-11T10:40:24.920Z,18.63
2019-05-11T10:41:28.505Z,18.62
2019-05-11T10:42:31.042Z,18.61
2019-05-11T10:43:33.253Z,18.61
2019-05-11T10:44:35.695Z,18.62
2019-05-11T10:45:38.031Z,18.62
2019-05-11T10:46:40.494Z,18.63
2019-05-11T10:47:42.687Z,18.64
2019-05-11T10:48:45.101Z,18.64
2019-05-11T10:49:48.455Z,18.63
2019-05-11T10:50:51.095Z,18.64
2019-05-11T10:51:53.374Z,18.64
2019-05-11T10:52:55.767Z,18.63
2019-05-11T10:53:57.999Z,18.63
2019-05-11T10:55:00.387Z,18.64
2019-05-11T10:56:02.589Z,18.63
2019-05-11T10:57:04.980Z,18.63
2019-05-11T10:58:08.616Z,18.62
2019-05-11T10:59:11.186Z,18.63
2019-05-11T11:00:13.377Z,18.63
2019-05-11T11:01:17.947Z,18.63
2019-05-11T11:02:19.582Z,18.63
2019-05-11T11:03:21.996Z,18.63
2019-05-11T11:04:24.325Z,18.64
2019-05-11T11:05:27.906Z,18.64
2019-05-11T11:06:30.367Z,18.62
2019-05-11T11:07:32.756Z,18.62
2019-05-11T11:08:34.942Z,18.63
2019-05-11T11:09:38.556Z,18.63
2019-05-11T11:10:40.861Z,18.63
2019-05-11T11:11:43.267Z,18.61
2019-05-11T11:12:45.471Z,18.62
2019-05-11T11:13:48.261Z,18.63
2019-05-11T11:14:50.570Z,18.62
2019-05-11T11:15:52.954Z,18.63
2019-05-11T11:16:55.194Z,18.63
2019-05-11T11:17:57.988Z,18.64
2019-05-11T11:19:00.259Z,18.64
2019-05-11T11:20:02.644Z,18.62
2019-05-11T11:21:04.836Z,18.62
2019-05-11T11:22:29.357Z,18.61
2019-05-11T11:23:11.108Z,18.62
2019-05-11T11:24:13.478Z,18.62
2019-05-11T11:25:17.745Z,18.63
2019-05-11T11:26:19.710Z,18.63
2019-05-11T11:27:21.944Z,18.63
2019-05-11T11:28:24.338Z,18.62
2019-05-11T11:29:28.556Z,18.62
2019-05-11T11:30:30.670Z,18.62
2019-05-11T11:31:32.909Z,18.62
2019-05-11T11:32:35.293Z,18.62
2019-05-11T11:33:38.261Z,18.63
2019-05-11T11:34:40.787Z,18.63
2019-05-11T11:35:42.985Z,18.64
2019-05-11T11:36:45.299Z,18.63
2019-05-11T11:37:47.947Z,18.63
2019-05-11T11:38:50.357Z,18.64
2019-05-11T11:39:52.555Z,18.65
2019-05-11T11:40:54.940Z,18.65
2019-05-11T11:41:58.543Z,18.65
2019-05-11T11:43:01.205Z,18.66
2019-05-11T11:44:03.398Z,18.67
2019-05-11T11:45:07.870Z,18.68
2019-05-11T11:46:09.644Z,18.70
2019-05-11T11:47:12.030Z,18.69
2019-05-11T11:48:14.254Z,18.69
2019-05-11T11:49:18.794Z,18.69
2019-05-11T11:50:20.512Z,18.69
2019-05-11T11:51:22.905Z,18.69
2019-05-11T11:52:25.095Z,18.68
2019-05-11T11:53:28.028Z,18.70
2019-05-11T11:54:30.286Z,18.71
2019-05-11T11:55:32.668Z,18.71
2019-05-11T11:56:34.875Z,18.72
2019-05-11T11:57:37.967Z,18.73
2019-05-11T11:58:40.415Z,18.73
2019-05-11T11:59:42.826Z,18.73
2019-05-11T12:00:45.042Z,18.74
2019-05-11T12:01:48.766Z,18.74
2019-05-11T12:02:51.133Z,18.74
2019-05-11T12:03:53.556Z,18.73
2019-05-11T12:04:57.632Z,18.74
2019-05-11T12:05:59.811Z,18.74
2019-05-11T12:07:02.004Z,18.75
2019-05-11T12:08:04.411Z,18.74
2019-05-11T12:09:08.830Z,18.74
2019-05-11T12:10:11.224Z,18.76
2019-05-11T12:11:13.450Z,18.75
2019-05-11T12:12:15.841Z,18.75
2019-05-11T12:13:18.696Z,18.75
2019-05-11T12:14:21.323Z,18.76
2019-05-11T12:15:23.528Z,18.76
2019-05-11T12:16:28.018Z,18.76
2019-05-11T12:17:29.759Z,18.76
2019-05-11T12:18:32.147Z,18.76
2019-05-11T12:19:34.293Z,18.76
2019-05-11T12:20:38.771Z,18.78
2019-05-11T12:21:40.539Z,18.79
2019-05-11T12:22:42.954Z,18.80
2019-05-11T12:23:45.188Z,18.80
2019-05-11T12:24:48.246Z,18.80
2019-05-11T12:25:50.485Z,18.80
2019-05-11T12:26:52.887Z,18.79
2019-05-11T12:27:55.085Z,18.79
2019-05-11T12:28:57.989Z,18.78
2019-05-11T12:30:00.201Z,18.76
2019-05-11T12:31:02.528Z,18.76
2019-05-11T12:32:08.174Z,18.77
2019-05-11T12:33:10.664Z,18.77
2019-05-11T12:34:12.878Z,18.78
2019-05-11T12:35:15.278Z,18.79
2019-05-11T12:36:19.014Z,18.80
2019-05-11T12:37:22.062Z,18.81
2019-05-11T12:38:24.383Z,18.82
2019-05-11T12:39:28.244Z,18.81
2019-05-11T12:40:39.845Z,18.82
2019-05-11T12:41:42.251Z,18.81
2019-05-11T12:42:44.469Z,18.79
2019-05-11T12:43:48.865Z,18.78
2019-05-11T12:44:50.734Z,18.77
2019-05-11T12:45:53.125Z,18.76
2019-05-11T12:46:55.405Z,18.77
2019-05-11T12:47:58.688Z,18.77
2019-05-11T12:49:01.056Z,18.78
2019-05-11T12:50:03.451Z,18.81
2019-05-11T12:51:07.931Z,18.82
2019-05-11T12:52:10.088Z,18.83
2019-05-11T12:53:12.295Z,18.83
2019-05-11T12:54:14.691Z,18.80
2019-05-11T12:55:17.956Z,18.80
2019-05-11T12:56:20.488Z,18.82
2019-05-11T12:57:22.692Z,18.83
2019-05-11T12:58:25.103Z,18.81
2019-05-11T12:59:27.838Z,18.80
2019-05-11T13:00:31.458Z,18.78
2019-05-11T13:01:33.926Z,18.78
2019-05-11T13:02:38.599Z,18.77
2019-05-11T13:03:40.167Z,18.77
2019-05-11T13:04:42.568Z,18.79
2019-05-11T13:05:44.769Z,18.79
2019-05-11T13:06:47.898Z,18.83
2019-05-11T13:07:50.276Z,18.86
2019-05-11T13:08:52.662Z,18.85
2019-05-11T13:09:54.874Z,18.85
2019-05-11T13:10:58.464Z,18.84
2019-05-11T13:12:00.750Z,18.86
2019-05-11T13:13:03.149Z,18.84
2019-05-11T13:14:07.526Z,18.84
2019-05-11T13:15:09.415Z,18.84
2019-05-11T13:16:11.607Z,18.85
2019-05-11T13:17:13.990Z,18.85
2019-05-11T13:18:18.404Z,18.84
2019-05-11T13:19:20.239Z,18.83
2019-05-11T13:20:22.448Z,18.83
2019-05-11T13:21:24.837Z,18.84
2019-05-11T13:22:28.919Z,18.84
2019-05-11T13:23:31.074Z,18.85
2019-05-11T13:24:33.274Z,18.83
2019-05-11T13:25:35.682Z,18.85
2019-05-11T13:26:38.210Z,18.83